Flicksville, Pennsylvania
Current Conditions -  °F | °C
As of 4:51 AM on Wednesday 22 Oct 2014 (Local Time) from KABE Reporting Station
Overcast Overcast  
Wind Chill: 54°   Ceiling: 1800
Heat Index: 54°   Visibility: 10mi
Dew Point: 49°   Wind: 10mph
Humidity: 83%   Direction: 30°NNE
Pressure: 29.89"   Gusts: NA
Location:  40.84°N, 75.2°W
Report Text: KABE 220851Z 03009KT 10SM OVC018 12/09 A2989 RMK AO2 SLP121 T01220094 56006
Loading
Personal Weather Stations






























Interactive Weather Map
Tropical Storm Tracking
New forecast layout! Learn more

10-Day Weather Forecast

Advertisements
Track Severe Weather on mobile